»·PEaware :: N899M KMSO-KSAC

N899M :: KMSO-KSAC

FLIGHT INFORMATION

Flight Status: Arrived
Operator: Privately registered:
United States
More flights under this callsign
Pilot: Robert C. (30425)
Aircraft: Unknown
(EPIC)
More flights by this aircraft type
Origin: KMSO Missoula Intl
United States
Destination: KSAC Sacramento Executive
United States
More flights between these airports :: More routes between these airports
Route: +DIDLY5 LKT V113 FMG V6 FOLLY
File this flight plan on PilotEdge
Remarks:
Altitude:
(Current/Filed)
18,000ft
Speed:
(Current/Filed)
300kts
Departed: 16-Oct-20 07:02 PM
Arrived: 16-Oct-20 09:20 PM
Distance/Time
Traveled:
600nm/2:17
Distance/Time
To Go:
Arrived

Flight Plot

Page will automatically refresh every two minutes.

Flight plan parsing failed; only flown route is shown


Map Options




Map Legend


Flown Route
Filed Route
Departure Airport
Arrival Airport
Navaid (VOR, NDB)
Fix

Horizontal Profiles

Position Reports

Time Latitude Longitude Heading Altitude Ground
Speed
16-Oct-20 17:53 46.914909 -114.076409 0 3199ft 0kts
16-Oct-20 17:54 46.914909 -114.076409 0 3199ft 0kts
16-Oct-20 17:55 46.914909 -114.076409 0 3199ft 0kts
16-Oct-20 17:56 46.914909 -114.076409 0 3199ft 0kts
16-Oct-20 17:57 46.914909 -114.076409 0 3199ft 0kts
16-Oct-20 17:58 46.914909 -114.076409 0 3199ft 0kts
16-Oct-20 17:59 46.914909 -114.076409 0 3199ft 0kts
16-Oct-20 18:00 46.914909 -114.076409 0 3199ft 0kts
16-Oct-20 18:01 46.914909 -114.076409 0 3199ft 0kts
16-Oct-20 18:02 46.914909 -114.076409 0 3199ft 0kts
16-Oct-20 18:03 46.914909 -114.076409 0 3199ft 0kts
16-Oct-20 18:04 46.914909 -114.076410 0 3199ft 0kts
16-Oct-20 18:05 46.914909 -114.076409 359 3199ft 0kts
16-Oct-20 18:06 46.914909 -114.076409 359 3199ft 0kts
16-Oct-20 18:07 46.914909 -114.076409 359 3199ft 0kts
16-Oct-20 18:08 46.914909 -114.076409 359 3199ft 0kts
16-Oct-20 18:09 46.914909 -114.076409 359 3199ft 0kts
16-Oct-20 18:10 46.914909 -114.076409 359 3199ft 0kts
16-Oct-20 18:11 46.914909 -114.076409 359 3199ft 0kts
16-Oct-20 18:12 46.914909 -114.076409 359 3199ft 0kts
16-Oct-20 18:13 46.914909 -114.076409 359 3199ft 0kts
16-Oct-20 18:14 46.914909 -114.076409 359 3199ft 0kts
16-Oct-20 18:15 46.914909 -114.076409 359 3199ft 0kts
16-Oct-20 18:16 46.914909 -114.076409 359 3199ft 0kts
16-Oct-20 18:17 46.914909 -114.076409 359 3199ft 0kts
16-Oct-20 18:18 46.914909 -114.076409 359 3199ft 0kts
16-Oct-20 18:19 46.914909 -114.076409 359 3199ft 0kts
16-Oct-20 18:20 46.914909 -114.076409 359 3199ft 0kts
16-Oct-20 18:21 46.914909 -114.076409 359 3199ft 0kts
16-Oct-20 18:22 46.914909 -114.076409 359 3199ft 0kts
16-Oct-20 18:23 46.914909 -114.076409 359 3199ft 0kts
16-Oct-20 18:24 46.914909 -114.076409 360 3199ft 0kts
16-Oct-20 18:25 46.914909 -114.076409 359 3199ft 0kts
16-Oct-20 18:26 46.914909 -114.076409 359 3199ft 0kts
16-Oct-20 18:27 46.914909 -114.076409 360 3199ft 0kts
16-Oct-20 18:28 46.914909 -114.076409 359 3199ft 0kts
16-Oct-20 18:29 46.914909 -114.076409 359 3199ft 0kts
16-Oct-20 18:30 46.914909 -114.076409 359 3199ft 0kts
16-Oct-20 18:31 46.914909 -114.076409 359 3199ft 0kts
16-Oct-20 18:32 46.914909 -114.076409 359 3199ft 0kts
16-Oct-20 18:33 46.914909 -114.076409 360 3199ft 0kts
16-Oct-20 18:34 46.914909 -114.076409 359 3199ft 0kts
16-Oct-20 18:35 46.914909 -114.076409 359 3199ft 0kts
16-Oct-20 18:36 46.914909 -114.076409 359 3199ft 0kts
16-Oct-20 18:37 46.914909 -114.076409 359 3199ft 0kts
16-Oct-20 18:38 46.914909 -114.076409 359 3199ft 0kts
16-Oct-20 18:40 46.914909 -114.076409 359 3199ft 0kts
16-Oct-20 18:41 46.914909 -114.076409 359 3199ft 0kts
16-Oct-20 18:42 46.914909 -114.076409 360 3199ft 0kts
16-Oct-20 18:43 46.914909 -114.076409 359 3199ft 0kts
16-Oct-20 18:44 46.914909 -114.076409 359 3199ft 0kts
16-Oct-20 18:45 46.914909 -114.076409 359 3199ft 0kts
16-Oct-20 18:46 46.914909 -114.076409 359 3199ft 0kts
16-Oct-20 18:47 46.914909 -114.076409 359 3199ft 0kts
16-Oct-20 18:48 46.914909 -114.076409 359 3199ft 0kts
16-Oct-20 18:49 46.914909 -114.076409 359 3199ft 0kts
16-Oct-20 18:50 46.914909 -114.076409 359 3199ft 0kts
16-Oct-20 18:51 46.914909 -114.076409 359 3199ft 0kts
16-Oct-20 18:52 46.914909 -114.076409 359 3199ft 0kts
16-Oct-20 18:53 46.915054 -114.076771 293 3199ft 5kts
16-Oct-20 18:54 46.915349 -114.080043 269 3200ft 0kts
16-Oct-20 18:55 46.914357 -114.082917 220 3199ft 18kts
16-Oct-20 18:56 46.911186 -114.079390 131 3198ft 15kts
16-Oct-20 18:57 46.908957 -114.077154 177 3193ft 0kts
16-Oct-20 18:58 46.908957 -114.077154 177 3193ft 0kts
16-Oct-20 18:58 46.908957 -114.077154 177 3193ft 0kts
16-Oct-20 18:59 46.908956 -114.077154 177 3193ft 0kts
16-Oct-20 19:00 46.908452 -114.078488 298 3193ft 16kts
16-Oct-20 19:01 46.927144 -114.109768 310 4480ft 135kts
16-Oct-20 19:02 46.961315 -114.161580 311 6214ft 208kts
16-Oct-20 19:03 47.004604 -114.225606 311 7707ft 228kts
16-Oct-20 19:04 47.052503 -114.296270 311 8149ft 251kts
16-Oct-20 19:05 47.059883 -114.381051 218 8756ft 280kts
16-Oct-20 19:06 46.976511 -114.365846 169 9370ft 318kts
16-Oct-20 19:07 46.917772 -114.284183 96 10148ft 316kts
16-Oct-20 19:08 46.920851 -114.163016 78 11913ft 302kts
16-Oct-20 19:09 46.904381 -114.046966 148 13287ft 310kts
16-Oct-20 19:10 46.835006 -113.979621 135 14714ft 325kts
16-Oct-20 19:11 46.769572 -113.892053 171 16100ft 310kts
16-Oct-20 19:12 46.717982 -113.938394 225 17513ft 248kts
16-Oct-20 19:13 46.639751 -113.936006 197 18971ft 282kts
16-Oct-20 19:14 46.558767 -113.943073 198 20003ft 311kts
16-Oct-20 19:15 46.469921 -113.951377 198 20001ft 322kts
16-Oct-20 19:16 46.380273 -113.959790 197 20001ft 325kts
16-Oct-20 19:17 46.289895 -113.968279 197 20002ft 326kts
16-Oct-20 19:18 46.199349 -113.976698 197 20001ft 326kts
16-Oct-20 19:19 46.109098 -113.985096 197 20002ft 325kts
16-Oct-20 19:20 46.019234 -113.993420 198 20015ft 322kts
16-Oct-20 19:21 45.929836 -114.001686 198 20036ft 321kts
16-Oct-20 19:22 45.841156 -114.009857 198 20033ft 320kts
16-Oct-20 19:23 45.752329 -114.018021 198 20034ft 320kts
16-Oct-20 19:24 45.663578 -114.026143 198 20035ft 319kts
16-Oct-20 19:25 45.575218 -114.034209 198 20033ft 319kts
16-Oct-20 19:26 45.486519 -114.042271 198 20035ft 319kts
16-Oct-20 19:27 45.397824 -114.050315 198 20036ft 320kts
16-Oct-20 19:28 45.309125 -114.058334 198 20037ft 320kts
16-Oct-20 19:29 45.220370 -114.066326 198 20037ft 320kts
16-Oct-20 19:30 45.131443 -114.074313 198 20038ft 320kts
16-Oct-20 19:31 45.042616 -114.082381 197 20036ft 319kts
16-Oct-20 19:32 44.979146 -114.147472 235 20039ft 285kts
16-Oct-20 19:33 44.923126 -114.230249 235 20053ft 297kts
16-Oct-20 19:34 44.865691 -114.315331 234 20085ft 301kts
16-Oct-20 19:35 44.807490 -114.401296 234 20110ft 303kts
16-Oct-20 19:36 44.749146 -114.487211 234 20112ft 304kts
16-Oct-20 19:37 44.690617 -114.573120 234 20066ft 305kts
16-Oct-20 19:38 44.631852 -114.659109 234 20071ft 305kts
16-Oct-20 19:39 44.572884 -114.745135 234 20074ft 306kts
16-Oct-20 19:40 44.513769 -114.831098 234 20073ft 307kts
16-Oct-20 19:41 44.454484 -114.917049 234 20073ft 307kts
16-Oct-20 19:42 44.395147 -115.002794 234 20073ft 307kts
16-Oct-20 19:43 44.335597 -115.088583 234 20073ft 307kts
16-Oct-20 19:44 44.276044 -115.174113 234 20073ft 307kts
16-Oct-20 19:45 44.216580 -115.259257 235 20083ft 306kts
16-Oct-20 19:46 44.157025 -115.344265 235 20098ft 306kts
16-Oct-20 19:47 44.097568 -115.428875 235 20116ft 305kts
16-Oct-20 19:48 44.038006 -115.513371 235 20117ft 306kts
16-Oct-20 19:49 43.978441 -115.597617 235 20117ft 306kts
16-Oct-20 19:50 43.918726 -115.681812 234 20125ft 306kts
16-Oct-20 19:51 43.858724 -115.766161 234 20118ft 307kts
16-Oct-20 19:52 43.798779 -115.850156 234 20117ft 306kts
16-Oct-20 19:53 43.738766 -115.933959 234 20117ft 306kts
16-Oct-20 19:54 43.678720 -116.017556 234 20117ft 306kts
16-Oct-20 19:55 43.618710 -116.100846 234 20117ft 306kts
16-Oct-20 19:56 43.558501 -116.184160 234 20116ft 306kts
16-Oct-20 19:57 43.506721 -116.274498 241 20112ft 300kts
16-Oct-20 19:58 43.455807 -116.365328 241 20108ft 299kts
16-Oct-20 19:59 43.404723 -116.456201 241 20107ft 299kts
16-Oct-20 20:00 43.353733 -116.546617 241 20105ft 299kts
16-Oct-20 20:01 43.302723 -116.636805 241 20105ft 299kts
16-Oct-20 20:02 43.251456 -116.727175 240 20117ft 300kts
16-Oct-20 20:03 43.199851 -116.817855 240 20119ft 301kts
16-Oct-20 20:04 43.148286 -116.908197 240 20119ft 301kts
16-Oct-20 20:05 43.096315 -116.998965 240 20118ft 303kts
16-Oct-20 20:06 43.044007 -117.090033 240 20112ft 305kts
16-Oct-20 20:07 42.991167 -117.181800 239 20145ft 309kts
16-Oct-20 20:08 42.937608 -117.274485 238 20180ft 314kts
16-Oct-20 20:09 42.882899 -117.368847 237 20187ft 316kts
16-Oct-20 20:10 42.828569 -117.462228 237 20188ft 314kts
16-Oct-20 20:11 42.774181 -117.555448 237 20187ft 314kts
16-Oct-20 20:12 42.719717 -117.648505 237 20188ft 313kts
16-Oct-20 20:13 42.665321 -117.741162 236 20191ft 314kts
16-Oct-20 20:14 42.610611 -117.834055 236 20191ft 314kts
16-Oct-20 20:15 42.528578 -117.876713 190 20193ft 336kts
16-Oct-20 20:16 42.435592 -117.890257 189 20192ft 336kts
16-Oct-20 20:17 42.342407 -117.903536 189 20193ft 336kts
16-Oct-20 20:18 42.249541 -117.916727 189 20193ft 336kts
16-Oct-20 20:19 42.156464 -117.929911 189 20194ft 337kts
16-Oct-20 20:20 42.063427 -117.943051 189 20194ft 337kts
16-Oct-20 20:21 41.970165 -117.956181 189 20195ft 337kts
16-Oct-20 20:22 41.877347 -117.969214 189 20189ft 334kts
16-Oct-20 20:23 41.785117 -117.982125 189 20189ft 332kts
16-Oct-20 20:24 41.693376 -117.994929 189 20215ft 331kts
16-Oct-20 20:25 41.601764 -118.007681 189 20257ft 331kts
16-Oct-20 20:26 41.510366 -118.020367 189 20264ft 331kts
16-Oct-20 20:27 41.418366 -118.033176 193 20259ft 331kts
16-Oct-20 20:28 41.342092 -118.092734 218 20265ft 319kts
16-Oct-20 20:29 41.268423 -118.158361 218 20265ft 319kts
16-Oct-20 20:30 41.194457 -118.224103 218 20266ft 319kts
16-Oct-20 20:31 41.120694 -118.289480 218 20266ft 319kts
16-Oct-20 20:32 41.046536 -118.355041 217 20266ft 321kts
16-Oct-20 20:33 40.971926 -118.420792 216 20267ft 324kts
16-Oct-20 20:34 40.896543 -118.487014 215 20268ft 325kts
16-Oct-20 20:35 40.821383 -118.552878 215 20269ft 325kts
16-Oct-20 20:36 40.746045 -118.618720 215 20272ft 325kts
16-Oct-20 20:37 40.670442 -118.684611 215 20273ft 325kts
16-Oct-20 20:38 40.594971 -118.750200 215 20273ft 325kts
16-Oct-20 20:40 40.519365 -118.815725 215 20274ft 325kts
16-Oct-20 20:41 40.443624 -118.881185 214 20274ft 326kts
16-Oct-20 20:42 40.367859 -118.946485 214 20274ft 326kts
16-Oct-20 20:43 40.291988 -119.011697 214 20275ft 327kts
16-Oct-20 20:44 40.215627 -119.077146 213 20275ft 327kts
16-Oct-20 20:45 40.140134 -119.141681 214 20276ft 323kts
16-Oct-20 20:46 40.065085 -119.205663 214 20298ft 321kts
16-Oct-20 20:47 39.990424 -119.269146 214 20334ft 319kts
16-Oct-20 20:48 39.915855 -119.332383 214 20330ft 320kts
16-Oct-20 20:49 39.841219 -119.395507 214 20322ft 320kts
16-Oct-20 20:50 39.766850 -119.458241 214 20321ft 319kts
16-Oct-20 20:51 39.692177 -119.521088 214 20313ft 319kts
16-Oct-20 20:52 39.617555 -119.583753 214 20315ft 319kts
16-Oct-20 20:53 39.542481 -119.646622 213 20313ft 319kts
16-Oct-20 20:54 39.486798 -119.734424 235 20310ft 316kts
16-Oct-20 20:55 39.434688 -119.826013 235 20321ft 316kts
16-Oct-20 20:56 39.382544 -119.917432 235 20345ft 316kts
16-Oct-20 20:57 39.330167 -120.008987 235 20374ft 316kts
16-Oct-20 20:57 39.286612 -120.084936 235 20376ft 316kts
16-Oct-20 20:59 39.226435 -120.189584 235 19698ft 303kts
16-Oct-20 20:59 39.185117 -120.261224 235 19200ft 297kts
16-Oct-20 21:01 39.128767 -120.360936 235 18505ft 292kts
16-Oct-20 21:01 39.088819 -120.431590 235 17924ft 297kts
16-Oct-20 21:03 39.033250 -120.529461 235 16777ft 280kts
16-Oct-20 21:03 38.995744 -120.595594 235 15946ft 269kts
16-Oct-20 21:04 38.952288 -120.671891 234 14954ft 262kts
16-Oct-20 21:05 38.909741 -120.746409 234 13959ft 256kts
16-Oct-20 21:06 38.867413 -120.820374 233 12777ft 259kts
16-Oct-20 21:07 38.824487 -120.895193 233 11479ft 261kts
16-Oct-20 21:08 38.781378 -120.970159 233 10196ft 261kts
16-Oct-20 21:09 38.741229 -121.039848 234 9988ft 231kts
16-Oct-20 21:10 38.704079 -121.104191 234 8512ft 220kts
16-Oct-20 21:11 38.670519 -121.169097 238 6817ft 218kts
16-Oct-20 21:12 38.638327 -121.234726 238 5124ft 217kts
16-Oct-20 21:13 38.612950 -121.286469 238 4985ft 145kts
16-Oct-20 21:14 38.591071 -121.331132 238 4992ft 150kts
16-Oct-20 21:15 38.573665 -121.382256 256 4128ft 153kts
16-Oct-20 21:16 38.564947 -121.429990 257 2416ft 122kts
16-Oct-20 21:17 38.545612 -121.466251 211 799ft 108kts
16-Oct-20 21:18 38.522098 -121.486344 215 154ft 91kts
16-Oct-20 21:19 38.511302 -121.496326 270 21ft 16kts
16-Oct-20 21:20 38.511387 -121.496926 310 21ft 5kts
16-Oct-20 21:21 38.514219 -121.497203 311 22ft 11kts
16-Oct-20 21:22 38.514430 -121.497522 309 22ft 0kts
16-Oct-20 21:23 38.514430 -121.497522 309 22ft 0kts
16-Oct-20 21:24 38.514430 -121.497522 309 22ft 0kts
16-Oct-20 21:25 38.514430 -121.497522 309 22ft 0kts
16-Oct-20 21:26 38.514430 -121.497522 309 22ft 0kts
16-Oct-20 21:27 38.514430 -121.497522 309 22ft 0kts
16-Oct-20 21:28 38.514430 -121.497522 309 22ft 0kts
16-Oct-20 21:29 38.514430 -121.497522 309 22ft 0kts
16-Oct-20 21:30 38.514430 -121.497522 309 22ft 0kts
16-Oct-20 21:31 38.514430 -121.497522 309 22ft 0kts
16-Oct-20 21:32 38.514430 -121.497522 309 22ft 0kts
16-Oct-20 21:33 38.514430 -121.497522 309 22ft 0kts

Navigation Log

Ident Type
Flight plan parsing failed, navigation log unavailable